Time;durP1;ratioP1;P1;durP2;ratioP2;P2;SDS_P1;SDS_P2;PMS_P1;PMS_P2;Temp;Humidity;BMP_temperature;BMP_pressure;BME280_temperature;BME280_humidity;BME280_pressure;Samples;Min_cycle;Max_cycle;Signal;HPM_P1;HPM_P2
2023/04/02 00:01:38;;;;;;;9.73;3.80;;;;;;;-145.18;100.00;60484.78;4966872;28;20035;-70
2023/04/02 00:04:12;;;;;;;7.20;3.10;;;;;;;-145.18;100.00;60484.78;4892520;29;20041;-70
2023/04/02 00:06:44;;;;;;;6.53;2.57;;;;;;;-145.18;100.00;60484.78;4893901;29;20044;-69
2023/04/02 00:09:27;;;;;;;4.15;2.10;;;;;;;-145.18;100.00;60484.78;4912781;29;20047;-69
2023/04/02 00:11:53;;;;;;;4.93;2.17;;;;;;;-145.18;100.00;60484.78;4915639;29;20046;-69
2023/04/02 00:14:28;;;;;;;6.27;2.83;;;;;;;-145.18;100.00;60484.78;4913134;29;20040;-70
2023/04/02 00:16:56;;;;;;;4.77;2.13;;;;;;;-145.18;100.00;60484.78;4914952;29;20036;-69
2023/04/02 00:19:40;;;;;;;6.23;2.63;;;;;;;-145.18;100.00;60484.78;4915474;29;20028;-70
2023/04/02 00:22:12;;;;;;;9.50;3.20;;;;;;;-145.18;100.00;60484.78;4915524;29;20413;-70
2023/04/02 00:24:38;;;;;;;4.90;2.07;;;;;;;-145.18;100.00;60484.78;4915420;29;20059;-70
2023/04/02 00:27:09;;;;;;;5.97;2.07;;;;;;;-145.18;100.00;60484.78;4915567;29;20032;-69
2023/04/02 00:29:35;;;;;;;3.60;1.80;;;;;;;-145.18;100.00;60484.78;4914017;29;20036;-69
2023/04/02 00:32:01;;;;;;;7.43;2.43;;;;;;;-145.18;100.00;60484.78;4914332;29;20043;-70
2023/04/02 00:34:33;;;;;;;5.97;2.40;;;;;;;-145.18;100.00;60484.78;4958358;28;20443;-69
2023/04/02 00:37:00;;;;;;;8.60;2.87;;;;;;;-145.18;100.00;60484.78;5013787;28;20053;-69
2023/04/02 00:39:29;;;;;;;5.77;2.80;;;;;;;-145.18;100.00;60484.78;5013641;28;20042;-70
2023/04/02 00:42:03;;;;;;;5.80;2.00;;;;;;;-145.18;100.00;60484.78;4998349;28;20026;-70
2023/04/02 00:44:31;;;;;;;5.07;2.40;;;;;;;-145.18;100.00;60484.78;5006547;28;20189;-70
2023/04/02 00:47:06;;;;;;;5.47;2.50;;;;;;;-145.18;100.00;60484.78;5010700;28;20049;-69
2023/04/02 00:49:38;;;;;;;5.80;1.93;;;;;;;-145.18;100.00;60484.78;5015626;28;20045;-69
2023/04/02 00:52:17;;;;;;;6.17;1.70;;;;;;;-145.18;100.00;60484.78;5009346;28;20029;-69
2023/04/02 00:54:49;;;;;;;3.13;1.27;;;;;;;-145.18;100.00;60484.78;5011943;28;20482;-69
2023/04/02 00:57:24;;;;;;;6.03;1.53;;;;;;;-145.18;100.00;60484.78;5010820;28;20145;-69
2023/04/02 01:03:37;;;;;;;8.93;2.10;;;;;;;-145.18;100.00;60484.78;4961004;28;20053;-69
2023/04/02 01:06:10;;;;;;;3.27;1.20;;;;;;;-145.18;100.00;60484.78;4942750;28;20504;-69
2023/04/02 01:09:12;;;;;;;4.47;1.67;;;;;;;-145.18;100.00;60484.78;4967657;28;20184;-68
2023/04/02 01:12:00;;;;;;;4.13;1.43;;;;;;;-145.18;100.00;60484.78;4968626;28;20030;-69
2023/04/02 01:15:02;;;;;;;6.67;1.60;;;;;;;-145.18;100.00;60484.78;4964668;28;20066;-69
2023/04/02 01:17:47;;;;;;;3.47;1.40;;;;;;;-145.18;100.00;60484.78;4956779;28;20077;-69
2023/04/02 01:21:02;;;;;;;3.50;1.10;;;;;;;-145.18;100.00;60484.78;4969680;28;20410;-69
2023/04/02 01:23:40;;;;;;;3.83;1.30;;;;;;;-145.18;100.00;60484.78;4943368;29;20452;-69
2023/04/02 01:27:07;;;;;;;3.50;1.00;;;;;;;-145.18;100.00;60484.78;4940917;29;20041;-69
2023/04/02 01:29:47;;;;;;;3.03;1.30;;;;;;;-145.18;100.00;60484.78;4862734;29;20033;-69
2023/04/02 01:32:17;;;;;;;5.77;1.33;;;;;;;-145.18;100.00;60484.78;4873016;29;20045;-69
2023/04/02 01:34:46;;;;;;;3.43;1.30;;;;;;;-145.18;100.00;60484.78;4874416;29;20037;-69
2023/04/02 01:37:50;;;;;;;6.87;1.57;;;;;;;-145.18;100.00;60484.78;4869707;29;20461;-69
2023/04/02 01:40:43;;;;;;;5.53;1.57;;;;;;;-145.18;100.00;60484.78;4853769;29;20459;-69
2023/04/02 01:43:36;;;;;;;2.73;1.30;;;;;;;-145.18;100.00;60484.78;4857417;29;20025;-69
2023/04/02 01:46:41;;;;;;;1.90;1.00;;;;;;;-145.18;100.00;60484.78;4856065;29;20042;-70
2023/04/02 01:49:15;;;;;;;3.67;1.17;;;;;;;-145.18;100.00;60484.78;4825002;29;20026;-69
2023/04/02 01:51:46;;;;;;;3.90;1.10;;;;;;;-145.18;100.00;60484.78;4830985;29;20046;-70
2023/04/02 01:54:15;;;;;;;4.13;1.15;;;;;;;-145.18;100.00;60484.78;4811643;29;20069;-69
2023/04/02 01:56:42;;;;;;;6.93;1.70;;;;;;;-145.18;100.00;60484.78;4828810;29;20038;-69
2023/04/02 01:59:10;;;;;;;2.60;1.10;;;;;;;-145.18;100.00;60484.78;4852270;29;20065;-69
2023/04/02 02:01:51;;;;;;;5.63;1.60;;;;;;;-145.18;100.00;60484.78;4844353;29;20050;-69
2023/04/02 02:04:17;;;;;;;4.47;1.45;;;;;;;-145.18;100.00;60484.78;4920755;29;20046;-69
2023/04/02 02:06:43;;;;;;;7.40;1.43;;;;;;;-145.18;100.00;60484.78;4935622;29;20519;-69
2023/04/02 02:09:21;;;;;;;3.20;1.17;;;;;;;-145.18;100.00;60484.78;4938102;29;20035;-69
2023/04/02 02:11:47;;;;;;;3.53;1.17;;;;;;;-145.18;100.00;60484.78;4933715;29;20040;-69
2023/04/02 02:14:22;;;;;;;3.50;1.27;;;;;;;-145.18;100.00;60484.78;4936022;29;20421;-69
2023/04/02 02:16:48;;;;;;;1.60;0.90;;;;;;;-145.18;100.00;60484.78;4934416;29;20103;-69
2023/04/02 02:19:39;;;;;;;3.33;1.50;;;;;;;-145.18;100.00;60484.78;4955121;28;20119;-69
2023/04/02 02:22:36;;;;;;;3.00;1.10;;;;;;;-145.18;100.00;60484.78;5015605;28;20026;-69
2023/04/02 02:25:06;;;;;;;1.57;1.03;;;;;;;-145.18;100.00;60484.78;5004137;28;20060;-69
2023/04/02 02:28:09;;;;;;;5.73;1.40;;;;;;;-145.18;100.00;60484.78;5016287;28;20026;-69
2023/04/02 02:30:46;;;;;;;5.43;1.50;;;;;;;-145.18;100.00;60484.78;4975374;28;20046;-69
2023/04/02 02:33:36;;;;;;;4.87;1.43;;;;;;;-145.18;100.00;60484.78;4971731;28;20495;-69
2023/04/02 02:36:29;;;;;;;2.63;1.20;;;;;;;-145.18;100.00;60484.78;4963934;28;20042;-69
2023/04/02 02:39:00;;;;;;;5.57;1.40;;;;;;;-145.18;100.00;60484.78;4968067;28;20046;-69
2023/04/02 02:41:51;;;;;;;5.60;1.58;;;;;;;-145.18;100.00;60484.78;4974903;28;20121;-69
2023/04/02 02:44:25;;;;;;;3.10;1.10;;;;;;;-145.18;100.00;60484.78;4934595;29;20047;-69
2023/04/02 02:47:28;;;;;;;3.60;1.30;;;;;;;-145.18;100.00;60484.78;4921025;29;20048;-70
2023/04/02 02:50:00;;;;;;;5.67;1.50;;;;;;;-145.18;100.00;60484.78;4923555;29;20127;-69
2023/04/02 02:52:36;;;;;;;3.87;1.60;;;;;;;-145.18;100.00;60484.78;4936008;29;20627;-69
2023/04/02 02:55:09;;;;;;;4.10;1.40;;;;;;;-145.18;100.00;60484.78;4938575;29;20036;-69
2023/04/02 02:57:39;;;;;;;2.73;1.20;;;;;;;-145.18;100.00;60484.78;4934669;29;20051;-69
2023/04/02 03:00:08;;;;;;;4.13;1.10;;;;;;;-145.18;100.00;60484.78;4919024;29;20107;-69
2023/04/02 03:02:36;;;;;;;2.30;1.00;;;;;;;-145.18;100.00;60484.78;4930893;29;20040;-69
2023/04/02 03:05:03;;;;;;;3.77;1.27;;;;;;;-145.18;100.00;60484.78;4955979;28;20035;-69
2023/04/02 03:07:30;;;;;;;3.00;1.10;;;;;;;-145.18;100.00;60484.78;4974118;28;20562;-69
2023/04/02 03:10:19;;;;;;;3.10;1.20;;;;;;;-145.18;100.00;60484.78;4974237;28;20230;-69
2023/04/02 03:13:01;;;;;;;4.03;1.57;;;;;;;-145.18;100.00;60484.78;4973832;28;20062;-69
2023/04/02 03:15:52;;;;;;;3.47;1.35;;;;;;;-145.18;100.00;60484.78;4973076;28;20517;-69
2023/04/02 03:18:45;;;;;;;2.03;1.05;;;;;;;-145.18;100.00;60484.78;4916631;29;20040;-69
2023/04/02 03:22:01;;;;;;;6.00;1.20;;;;;;;-145.18;100.00;60484.78;4954761;29;20035;-69
2023/04/02 03:24:46;;;;;;;2.57;1.20;;;;;;;-145.18;100.00;60484.78;4846560;29;20030;-69
2023/04/02 03:27:17;;;;;;;3.47;1.00;;;;;;;-145.18;100.00;60484.78;4841239;29;20087;-69
2023/04/02 03:29:49;;;;;;;;;;;;;;;-145.18;100.00;60484.78;4839899;29;20116;-69
2023/04/02 03:32:25;;;;;;;2.55;1.17;;;;;;;-145.18;100.00;60484.78;4842148;29;20025;-69
2023/04/02 03:34:57;;;;;;;7.27;2.73;;;;;;;-145.18;100.00;60484.78;4858768;29;20060;-69
2023/04/02 03:37:37;;;;;;;2.47;1.15;;;;;;;-145.18;100.00;60484.78;4860260;29;20033;-69
2023/04/02 03:40:21;;;;;;;8.93;2.00;;;;;;;-145.18;100.00;60484.78;4845404;29;20037;-69
2023/04/02 03:43:14;;;;;;;2.33;1.00;;;;;;;-145.18;100.00;60484.78;4830707;29;20030;-69
2023/04/02 03:45:44;;;;;;;4.83;1.40;;;;;;;-145.18;100.00;60484.78;4768551;30;20115;-68
2023/04/02 03:48:25;;;;;;;4.00;1.40;;;;;;;-145.18;100.00;60484.78;4769576;30;20060;-69
2023/04/02 03:51:20;;;;;;;4.07;1.58;;;;;;;-145.18;100.00;60484.78;4769244;30;20532;-68
2023/04/02 03:53:47;;;;;;;6.23;1.63;;;;;;;-145.18;100.00;60484.78;4768935;30;20050;-69
2023/04/02 03:56:30;;;;;;;6.67;2.23;;;;;;;-145.18;100.00;60484.78;4800967;29;20039;-69
2023/04/02 03:59:24;;;;;;;5.50;1.67;;;;;;;-145.18;100.00;60484.78;4905926;29;20454;-69
2023/04/02 04:02:01;;;;;;;3.53;1.43;;;;;;;-145.18;100.00;60484.78;4915413;29;20039;-68
2023/04/02 04:04:30;;;;;;;5.07;1.33;;;;;;;-145.18;100.00;60484.78;4919543;29;20036;-69
2023/04/02 04:06:59;;;;;;;3.27;1.40;;;;;;;-145.18;100.00;60484.78;4917951;29;20036;-69
2023/04/02 04:09:33;;;;;;;3.67;1.37;;;;;;;-145.18;100.00;60484.78;4915706;29;20047;-69
2023/04/02 04:12:22;;;;;;;5.70;1.63;;;;;;;-145.18;100.00;60484.78;4915677;29;20044;-69
2023/04/02 04:14:53;;;;;;;4.33;1.70;;;;;;;-145.18;100.00;60484.78;4915067;29;20088;-69
2023/04/02 04:17:33;;;;;;;4.13;1.50;;;;;;;-145.18;100.00;60484.78;4914721;29;20036;-69
2023/04/02 04:20:20;;;;;;;3.77;1.13;;;;;;;-145.18;100.00;60484.78;4915292;29;20115;-69
2023/04/02 04:22:48;;;;;;;3.83;1.50;;;;;;;-145.18;100.00;60484.78;4974972;28;20104;-69
2023/04/02 04:25:21;;;;;;;8.43;1.60;;;;;;;-145.18;100.00;60484.78;5012788;28;20025;-69
2023/04/02 04:28:32;;;;;;;3.17;1.40;;;;;;;-145.18;100.00;60484.78;4996629;28;20084;-69
2023/04/02 04:31:09;;;;;;;4.53;1.40;;;;;;;-145.18;100.00;60484.78;4980702;28;20042;-69
2023/04/02 04:33:42;;;;;;;8.60;2.00;;;;;;;-145.18;100.00;60484.78;4994461;28;20041;-69
2023/04/02 04:36:27;;;;;;;2.17;1.17;;;;;;;-145.18;100.00;60484.78;5014088;28;20022;-69
2023/04/02 04:38:58;;;;;;;3.83;1.30;;;;;;;-145.18;100.00;60484.78;5013881;28;20036;-69
2023/04/02 04:41:30;;;;;;;7.80;1.67;;;;;;;-145.18;100.00;60484.78;5014213;28;20509;-69
2023/04/02 04:44:26;;;;;;;2.83;1.47;;;;;;;-145.18;100.00;60484.78;5012550;28;20034;-69
2023/04/02 04:47:20;;;;;;;4.13;1.50;;;;;;;-145.18;100.00;60484.78;4997971;28;20094;-69
2023/04/02 04:49:55;;;;;;;5.03;1.20;;;;;;;-145.18;100.00;60484.78;4972606;28;20555;-69
2023/04/02 04:52:25;;;;;;;3.33;1.10;;;;;;;-145.18;100.00;60484.78;4972130;28;20117;-69
2023/04/02 04:54:51;;;;;;;5.37;1.30;;;;;;;-145.18;100.00;60484.78;4971526;28;20569;-68
2023/04/02 04:57:38;;;;;;;5.40;1.53;;;;;;;-145.18;100.00;60484.78;4972738;28;20023;-69
2023/04/02 05:00:16;;;;;;;2.30;1.10;;;;;;;-145.18;100.00;60484.78;4970495;28;20035;-69
2023/04/02 05:02:56;;;;;;;8.30;1.40;;;;;;;-145.18;100.00;60484.78;4972486;28;20538;-69
2023/04/02 05:05:29;;;;;;;5.70;1.07;;;;;;;-145.18;100.00;60484.78;4971864;28;20129;-68
2023/04/02 05:07:59;;;;;;;4.50;1.73;;;;;;;-145.18;100.00;60484.78;4972470;28;20066;-69
2023/04/02 05:10:43;;;;;;;6.83;1.70;;;;;;;-145.18;100.00;60484.78;4972472;28;20109;-69
2023/04/02 05:13:39;;;;;;;3.53;1.10;;;;;;;-145.18;100.00;60484.78;4972432;28;20043;-69
2023/04/02 05:16:29;;;;;;;2.33;1.07;;;;;;;-145.18;100.00;60484.78;4970943;28;20043;-69
2023/04/02 05:19:05;;;;;;;7.50;1.80;;;;;;;-145.18;100.00;60484.78;4972336;28;20089;-69
2023/04/02 05:21:43;;;;;;;3.10;1.13;;;;;;;-145.18;100.00;60484.78;4972232;28;20045;-69
2023/04/02 05:24:40;;;;;;;2.40;1.23;;;;;;;-145.18;100.00;60484.78;4971682;28;20487;-69
2023/04/02 05:27:51;;;;;;;2.60;0.90;;;;;;;-145.18;100.00;60484.78;5002607;28;20042;-69
2023/04/02 05:31:00;;;;;;;5.77;1.33;;;;;;;-145.18;100.00;60484.78;4994923;28;20042;-69
2023/04/02 05:33:31;;;;;;;3.67;1.10;;;;;;;-145.18;100.00;60484.78;5002702;28;20057;-69
2023/04/02 05:36:04;;;;;;;3.92;0.95;;;;;;;-145.18;100.00;60484.78;5012441;28;20052;-69
2023/04/02 05:38:42;;;;;;;2.37;1.07;;;;;;;-145.18;100.00;60484.78;5013196;28;20038;-69
2023/04/02 05:41:23;;;;;;;2.97;1.20;;;;;;;-145.18;100.00;60484.78;5013245;28;20042;-69
2023/04/02 05:43:54;;;;;;;5.23;1.63;;;;;;;-145.18;100.00;60484.78;5011537;28;20402;-69
2023/04/02 05:46:26;;;;;;;5.90;1.55;;;;;;;-145.18;100.00;60484.78;4993576;28;20037;-69
2023/04/02 05:48:55;;;;;;;3.63;1.08;;;;;;;-145.18;100.00;60484.78;4993572;28;20046;-69
2023/04/02 05:51:37;;;;;;;3.50;1.20;;;;;;;-145.18;100.00;60484.78;4993513;28;20505;-69
2023/04/02 05:54:11;;;;;;;4.60;1.42;;;;;;;-145.18;100.00;60484.78;5002605;28;20029;-68
2023/04/02 05:56:42;;;;;;;4.47;1.40;;;;;;;-145.18;100.00;60484.78;5010814;28;20036;-68
2023/04/02 05:59:40;;;;;;;3.25;0.95;;;;;;;-145.18;100.00;60484.78;5011046;28;20030;-69
2023/04/02 06:02:32;;;;;;;2.43;1.00;;;;;;;-145.18;100.00;60484.78;4997064;28;20030;-69
2023/04/02 06:05:04;;;;;;;8.35;1.55;;;;;;;-145.18;100.00;60484.78;4993848;28;20065;-69
2023/04/02 06:07:56;;;;;;;4.23;1.47;;;;;;;-145.18;100.00;60484.78;5004278;28;20030;-68
2023/04/02 06:10:30;;;;;;;3.93;1.30;;;;;;;-145.18;100.00;60484.78;4986614;28;20038;-69
2023/04/02 06:13:02;;;;;;;5.23;1.67;;;;;;;-145.18;100.00;60484.78;5012887;28;20037;-68
2023/04/02 06:15:29;;;;;;;2.73;1.23;;;;;;;-145.18;100.00;60484.78;5011537;28;20497;-69
2023/04/02 06:18:20;;;;;;;3.37;1.47;;;;;;;-145.18;100.00;60484.78;5012684;28;20022;-69
2023/04/02 06:20:46;;;;;;;3.90;1.60;;;;;;;-145.18;100.00;60484.78;4984249;28;20498;-68
2023/04/02 06:23:44;;;;;;;7.27;1.23;;;;;;;-145.18;100.00;60484.78;5002179;28;20041;-69
2023/04/02 06:26:41;;;;;;;2.70;1.10;;;;;;;-145.18;100.00;60484.78;5000008;28;20128;-69
2023/04/02 06:29:14;;;;;;;3.13;1.20;;;;;;;-145.18;100.00;60484.78;5012739;28;20042;-69
2023/04/02 06:31:46;;;;;;;4.13;1.30;;;;;;;-145.18;100.00;60484.78;5011364;28;20057;-69
2023/04/02 06:34:17;;;;;;;2.53;0.93;;;;;;;-145.18;100.00;60484.78;5010627;28;20057;-69
2023/04/02 06:36:43;;;;;;;1.88;1.02;;;;;;;-145.18;100.00;60484.78;5011640;28;20442;-69
2023/04/02 06:39:17;;;;;;;5.47;1.00;;;;;;;-145.18;100.00;60484.78;5012689;28;20030;-69
2023/04/02 06:41:42;;;;;;;3.90;0.80;;;;;;;-145.18;100.00;60484.78;5013406;28;20058;-69
2023/04/02 06:44:16;;;;;;;2.37;1.07;;;;;;;-145.18;100.00;60484.78;5016100;28;20060;-69
2023/04/02 06:46:57;;;;;;;2.47;1.03;;;;;;;-145.18;100.00;60484.78;5015323;28;20037;-68
2023/04/02 06:50:11;;;;;;;2.78;1.15;;;;;;;-145.18;100.00;60484.78;5012786;28;20120;-68
2023/04/02 06:52:58;;;;;;;3.60;0.93;;;;;;;-145.18;100.00;60484.78;5002270;28;20502;-68
2023/04/02 06:55:46;;;;;;;2.97;1.30;;;;;;;-145.18;100.00;60484.78;5016084;28;20025;-68
2023/04/02 06:58:17;;;;;;;9.37;1.37;;;;;;;-145.18;100.00;60484.78;4955351;28;20530;-68
2023/04/02 07:00:47;;;;;;;3.57;1.00;;;;;;;-145.18;100.00;60484.78;4954323;29;20174;-69
2023/04/02 07:03:26;;;;;;;3.00;1.43;;;;;;;-145.18;100.00;60484.78;4955269;29;20452;-69
2023/04/02 07:05:52;;;;;;;3.10;0.97;;;;;;;-145.18;100.00;60484.78;4957746;28;20119;-69
2023/04/02 07:08:17;;;;;;;3.07;1.27;;;;;;;-145.18;100.00;60484.78;4954754;29;20058;-68
2023/04/02 07:10:43;;;;;;;1.83;1.03;;;;;;;-145.18;100.00;60484.78;4954880;29;20035;-69
2023/04/02 07:13:14;;;;;;;5.57;1.47;;;;;;;-145.18;100.00;60484.78;4955200;29;20035;-69
2023/04/02 07:15:40;;;;;;;4.70;1.30;;;;;;;-145.18;100.00;60484.78;4953476;29;20035;-69
2023/04/02 07:18:05;;;;;;;2.60;0.87;;;;;;;-145.18;100.00;60484.78;4955094;29;20123;-69
2023/04/02 07:20:36;;;;;;;2.03;0.90;;;;;;;-145.18;100.00;60484.78;4954370;29;20050;-68
2023/04/02 07:23:02;;;;;;;2.20;0.97;;;;;;;-145.18;100.00;60484.78;4953873;29;20071;-68
2023/04/02 07:25:27;;;;;;;1.83;1.00;;;;;;;-145.18;100.00;60484.78;4954873;29;20396;-69
2023/04/02 07:27:54;;;;;;;5.23;0.90;;;;;;;-145.18;100.00;60484.78;4954817;28;20118;-69
2023/04/02 07:30:19;;;;;;;3.87;1.40;;;;;;;-145.18;100.00;60484.78;4954014;29;20027;-69
2023/04/02 07:32:45;;;;;;;7.03;1.47;;;;;;;-145.18;100.00;60484.78;4962558;28;20556;-69
2023/04/02 07:35:10;;;;;;;4.80;1.40;;;;;;;-145.18;100.00;60484.78;5015193;28;20117;-68
2023/04/02 07:37:37;;;;;;;3.80;0.90;;;;;;;-145.18;100.00;60484.78;5015036;28;20026;-69
2023/04/02 07:40:15;;;;;;;3.33;1.20;;;;;;;-145.18;100.00;60484.78;5015012;28;20449;-69
2023/04/02 07:42:40;;;;;;;1.87;0.60;;;;;;;-145.18;100.00;60484.78;5014744;28;20037;-69
2023/04/02 07:45:07;;;;;;;3.57;0.80;;;;;;;-145.18;100.00;60484.78;5013313;28;20037;-69
2023/04/02 07:47:32;;;;;;;2.03;0.70;;;;;;;-145.18;100.00;60484.78;5013693;28;20383;-69
2023/04/02 07:49:58;;;;;;;3.13;0.80;;;;;;;-145.18;100.00;60484.78;5014955;28;20026;-69
2023/04/02 07:52:23;;;;;;;1.93;0.90;;;;;;;-145.18;100.00;60484.78;5014782;28;20447;-69
2023/04/02 07:54:49;;;;;;;2.03;0.83;;;;;;;-145.18;100.00;60484.78;5014174;28;20029;-68
2023/04/02 07:57:14;;;;;;;1.20;0.70;;;;;;;-145.18;100.00;60484.78;5013521;28;20049;-69
2023/04/02 07:59:40;;;;;;;3.17;1.07;;;;;;;-145.18;100.00;60484.78;5013495;28;20029;-69
2023/04/02 08:02:05;;;;;;;4.97;1.20;;;;;;;-145.18;100.00;60484.78;5014688;28;20112;-69
2023/04/02 08:04:31;;;;;;;2.87;1.00;;;;;;;-145.18;100.00;60484.78;5014664;28;20083;-69
2023/04/02 08:06:56;;;;;;;2.37;0.87;;;;;;;-145.18;100.00;60484.78;5010947;28;20030;-69
2023/04/02 08:09:22;;;;;;;3.47;1.00;;;;;;;-145.18;100.00;60484.78;5011330;28;20065;-69
2023/04/02 08:11:47;;;;;;;3.83;1.30;;;;;;;-145.18;100.00;60484.78;5014489;28;20029;-69
2023/04/02 08:14:13;;;;;;;4.10;1.30;;;;;;;-145.18;100.00;60484.78;5014480;28;20457;-69
2023/04/02 08:16:50;;;;;;;3.00;1.07;;;;;;;-145.18;100.00;60484.78;5013020;28;20029;-68
2023/04/02 08:19:16;;;;;;;5.77;1.67;;;;;;;-145.18;100.00;60484.78;5014361;28;20053;-69
2023/04/02 08:21:42;;;;;;;2.80;0.70;;;;;;;-145.18;100.00;60484.78;5010361;28;20057;-69
2023/04/02 08:24:07;;;;;;;2.37;0.93;;;;;;;-145.18;100.00;60484.78;5013124;28;20032;-69
2023/04/02 08:26:33;;;;;;;2.17;0.87;;;;;;;-145.18;100.00;60484.78;5014495;28;20056;-68
2023/04/02 08:28:58;;;;;;;2.80;0.87;;;;;;;-145.18;100.00;60484.78;5013686;28;20029;-69
2023/04/02 08:31:24;;;;;;;5.13;1.30;;;;;;;-145.18;100.00;60484.78;5012961;28;20124;-69
2023/04/02 08:33:49;;;;;;;3.70;1.00;;;;;;;-145.18;100.00;60484.78;5013165;28;20073;-69
2023/04/02 08:36:18;;;;;;;3.93;1.10;;;;;;;-145.18;100.00;60484.78;5012338;28;20498;-69
2023/04/02 08:38:45;;;;;;;4.43;1.10;;;;;;;-145.18;100.00;60484.78;5012525;28;20022;-69
2023/04/02 08:41:22;;;;;;;2.47;1.07;;;;;;;-145.18;100.00;60484.78;5012558;28;20057;-69
2023/04/02 08:44:31;;;;;;;2.70;1.10;;;;;;;-145.18;100.00;60484.78;5012848;28;20026;-69
2023/04/02 08:47:03;;;;;;;2.40;0.80;;;;;;;-145.18;100.00;60484.78;4961490;28;20034;-69
2023/04/02 08:49:57;;;;;;;6.37;1.27;;;;;;;-145.18;100.00;60484.78;5012219;28;20022;-69
2023/04/02 08:52:27;;;;;;;5.00;1.27;;;;;;;-145.18;100.00;60484.78;5012707;28;20072;-69
2023/04/02 08:54:55;;;;;;;2.27;0.83;;;;;;;-145.18;100.00;60484.78;5013281;28;20036;-69
2023/04/02 08:57:49;;;;;;;7.03;1.50;;;;;;;-145.18;100.00;60484.78;5013122;28;20026;-68
2023/04/02 09:00:32;;;;;;;4.17;1.00;;;;;;;-145.18;100.00;60484.78;5011620;28;20041;-68
2023/04/02 09:03:01;;;;;;;3.03;1.00;;;;;;;-145.18;100.00;60484.78;5012152;28;20393;-69
2023/04/02 09:05:30;;;;;;;3.80;1.30;;;;;;;-145.18;100.00;60484.78;5013583;28;20033;-69
2023/04/02 09:08:00;;;;;;;4.33;1.07;;;;;;;-145.18;100.00;60484.78;5012549;28;20029;-69
2023/04/02 09:10:41;;;;;;;5.17;1.33;;;;;;;-145.18;100.00;60484.78;5012195;28;20038;-68
2023/04/02 09:13:16;;;;;;;4.83;0.97;;;;;;;-145.18;100.00;60484.78;5012079;28;20033;-68
2023/04/02 09:15:42;;;;;;;4.80;1.60;;;;;;;-145.18;100.00;60484.78;5011828;28;20041;-68
2023/04/02 09:18:29;;;;;;;3.87;1.03;;;;;;;-145.18;100.00;60484.78;5013407;28;20602;-68
2023/04/02 09:20:54;;;;;;;5.30;1.67;;;;;;;-145.18;100.00;60484.78;5012831;28;20034;-68
2023/04/02 09:23:24;;;;;;;3.77;1.03;;;;;;;-145.18;100.00;60484.78;5011595;28;20088;-68
2023/04/02 09:25:52;;;;;;;2.37;0.80;;;;;;;-145.18;100.00;60484.78;5012707;28;20358;-67
2023/04/02 09:28:20;;;;;;;2.13;0.77;;;;;;;-145.18;100.00;60484.78;5012748;28;20378;-67
2023/04/02 09:31:17;;;;;;;1.10;0.70;;;;;;;-145.18;100.00;60484.78;5012689;28;20041;-67
2023/04/02 09:33:48;;;;;;;2.40;0.70;;;;;;;-145.18;100.00;60484.78;5009209;28;20045;-67
2023/04/02 09:36:35;;;;;;;2.42;0.88;;;;;;;-145.18;100.00;60484.78;5012100;28;20026;-67
2023/04/02 09:39:06;;;;;;;2.57;0.93;;;;;;;-145.18;100.00;60484.78;5011950;28;20030;-67
2023/04/02 09:41:34;;;;;;;2.43;0.60;;;;;;;-145.18;100.00;60484.78;5012144;28;20107;-67
2023/04/02 09:44:24;;;;;;;3.20;0.83;;;;;;;-145.18;100.00;60484.78;5012439;28;20088;-67
2023/04/02 09:47:04;;;;;;;4.47;0.93;;;;;;;-145.18;100.00;60484.78;4951140;29;20567;-67
2023/04/02 09:49:38;;;;;;;3.50;0.90;;;;;;;-145.18;100.00;60484.78;4952940;28;20036;-67
2023/04/02 09:52:27;;;;;;;2.77;0.60;;;;;;;-145.18;100.00;60484.78;4951508;29;20519;-68
2023/04/02 09:55:20;;;;;;;3.57;0.87;;;;;;;-145.18;100.00;60484.78;4870042;29;20046;-68
2023/04/02 09:57:47;;;;;;;3.73;0.90;;;;;;;-145.18;100.00;60484.78;4861853;29;20056;-68
2023/04/02 10:00:25;;;;;;;2.90;0.87;;;;;;;-145.18;100.00;60484.78;4868063;29;20446;-68
2023/04/02 10:03:16;;;;;;;4.53;1.07;;;;;;;-145.18;100.00;60484.78;4863131;29;20078;-68
2023/04/02 10:05:42;;;;;;;1.97;0.60;;;;;;;-145.18;100.00;60484.78;4871368;29;20123;-68
2023/04/02 10:08:23;;;;;;;3.00;0.90;;;;;;;-145.18;100.00;60484.78;4870367;29;20045;-68
2023/04/02 10:10:54;;;;;;;3.63;0.98;;;;;;;-145.18;100.00;60484.78;4881872;29;20078;-68
2023/04/02 10:13:28;;;;;;;2.13;0.53;;;;;;;-145.18;100.00;60484.78;4870552;29;20041;-69
2023/04/02 10:16:18;;;;;;;4.13;1.03;;;;;;;-145.18;100.00;60484.78;4869922;29;20491;-69
2023/04/02 10:19:19;;;;;;;5.27;0.87;;;;;;;-145.18;100.00;60484.78;4875723;29;20159;-69
2023/04/02 10:21:48;;;;;;;5.43;0.90;;;;;;;-145.18;100.00;60484.78;4862076;29;20418;-69
2023/04/02 10:24:15;;;;;;;4.43;1.10;;;;;;;-145.18;100.00;60484.78;4898393;29;20040;-69
2023/04/02 10:27:09;;;;;;;2.20;0.67;;;;;;;-145.18;100.00;60484.78;4932031;29;20028;-69
2023/04/02 10:30:08;;;;;;;3.33;0.90;;;;;;;-145.18;100.00;60484.78;4936926;29;20055;-69
2023/04/02 10:32:58;;;;;;;4.77;0.80;;;;;;;-145.18;100.00;60484.78;4908039;29;20127;-69
2023/04/02 10:35:57;;;;;;;2.20;0.90;;;;;;;-145.18;100.00;60484.78;4925133;29;20043;-69
2023/04/02 10:38:50;;;;;;;3.67;0.73;;;;;;;-145.18;100.00;60484.78;4915082;29;20051;-69
2023/04/02 10:41:33;;;;;;;1.70;0.80;;;;;;;-145.18;100.00;60484.78;4923296;29;20400;-69
2023/04/02 10:44:23;;;;;;;1.43;0.77;;;;;;;-145.18;100.00;60484.78;4936655;29;20066;-69
2023/04/02 10:47:27;;;;;;;3.00;1.00;;;;;;;-145.18;100.00;60484.78;4924767;29;20497;-69
2023/04/02 10:50:23;;;;;;;2.60;0.80;;;;;;;-145.18;100.00;60484.78;4916361;29;20040;-68
2023/04/02 10:53:14;;;;;;;1.10;0.60;;;;;;;-145.18;100.00;60484.78;4930689;29;20144;-69
2023/04/02 10:55:43;;;;;;;7.47;1.00;;;;;;;-145.18;100.00;60484.78;4934839;28;20125;-69
2023/04/02 10:58:30;;;;;;;2.67;0.87;;;;;;;-145.18;100.00;60484.78;4936446;29;20047;-69
2023/04/02 11:01:06;;;;;;;2.27;0.70;;;;;;;-145.18;100.00;60484.78;4937331;29;20409;-69
2023/04/02 11:03:58;;;;;;;2.67;0.67;;;;;;;-145.18;100.00;60484.78;4936335;29;20519;-69
2023/04/02 11:06:46;;;;;;;2.00;0.68;;;;;;;-145.18;100.00;60484.78;4936030;29;20063;-69
2023/04/02 11:09:24;;;;;;;2.70;0.80;;;;;;;-145.18;100.00;60484.78;4970847;28;20042;-69
2023/04/02 11:11:54;;;;;;;2.63;1.30;;;;;;;-145.18;100.00;60484.78;5013409;28;20076;-69
2023/04/02 11:14:23;;;;;;;3.40;0.70;;;;;;;-145.18;100.00;60484.78;5015010;28;20077;-69
2023/04/02 11:16:49;;;;;;;2.53;0.40;;;;;;;-145.18;100.00;60484.78;5014752;28;20030;-68
2023/04/02 11:19:35;;;;;;;2.70;0.80;;;;;;;-145.18;100.00;60484.78;5015478;28;20486;-68
2023/04/02 11:22:21;;;;;;;3.67;0.97;;;;;;;-145.18;100.00;60484.78;5014815;28;20088;-68
2023/04/02 11:24:56;;;;;;;1.93;0.80;;;;;;;-145.18;100.00;60484.78;5013230;28;20045;-68
2023/04/02 11:27:35;;;;;;;3.33;0.80;;;;;;;-145.18;100.00;60484.78;5015379;28;20045;-69
2023/04/02 11:30:33;;;;;;;2.07;0.70;;;;;;;-145.18;100.00;60484.78;5015300;28;20038;-69
2023/04/02 11:33:39;;;;;;;1.47;0.70;;;;;;;-145.18;100.00;60484.78;4982199;28;20054;-69
2023/04/02 11:36:43;;;;;;;2.17;0.80;;;;;;;-145.18;100.00;60484.78;4996006;28;20156;-69
2023/04/02 11:39:10;;;;;;;1.10;0.43;;;;;;;-145.18;100.00;60484.78;4995639;28;20112;-69
2023/04/02 11:42:02;;;;;;;4.17;1.10;;;;;;;-145.18;100.00;60484.78;4999012;28;20045;-69
2023/04/02 11:44:28;;;;;;;2.10;0.60;;;;;;;-145.18;100.00;60484.78;5012955;28;20037;-69
2023/04/02 11:47:17;;;;;;;1.57;0.60;;;;;;;-145.18;100.00;60484.78;5013521;28;20467;-69
2023/04/02 11:50:03;;;;;;;3.37;1.13;;;;;;;-145.18;100.00;60484.78;5011278;28;20034;-69
2023/04/02 11:52:51;;;;;;;2.97;0.87;;;;;;;-145.18;100.00;60484.78;5013152;28;20538;-69
2023/04/02 11:55:23;;;;;;;2.60;0.73;;;;;;;-145.18;100.00;60484.78;5013974;28;20087;-69
2023/04/02 11:58:41;;;;;;;2.23;1.03;;;;;;;-145.18;100.00;60484.78;5014319;28;20033;-69
2023/04/02 12:01:48;;;;;;;5.97;0.90;;;;;;;-145.18;100.00;60484.78;4991965;28;20053;-69
2023/04/02 12:04:53;;;;;;;3.30;1.00;;;;;;;-145.18;100.00;60484.78;4967980;28;20054;-70